Kevil, KY (42053)

8:17 PM CDT on May 25, 2017 (GMT -0500)
Heath | | Change Station
Active Advisory: Flood Warning

Elev 395 ft 37.07 °N, 88.81 °W | Updated 14 seconds ago

Clear
Clear
70.0 °F
Feels Like 70.0 °F
N
0.0
Wind Variable Wind from North
Gusts 0.0 mph

Today
High -- | Low -- °F
--% Chance of Precip.
Yesterday
High -- | Low -- °F
Precip. -- in
Pressure 29.74 in
Visibility 10.0 miles
Clouds Clear
Dew Point 54 °F
Humidity 57%
Rainfall 0.00 in
Snow Depth Not available.
5:40 AM 8:05 PM
New Moon, 0% visible
METAR KPAH 260053Z 20004KT 10SM CLR 22/08 A2975 RMK AO2 SLP071 T02170083
Pressure 29.74 in
Visibility 10.0 miles
Clouds Clear
Dew Point 54 °F
Humidity 57%
Rainfall 0.00 in
Snow Depth Not available.
5:40 AM 8:05 PM
New Moon, 0% visible
METAR KPAH 260053Z 20004KT 10SM CLR 22/08 A2975 RMK AO2 SLP071 T02170083

Get Your Daily Forecast Email!

Thanks for signing up!

Be on the lookout for a verification email in your inbox.

You'll start receiving severe weather alerts in your inbox..

×

10-Day Weather Forecast

Almanac

Astronomy

May. 25, 2017 Rise Set
Actual Time
Civil Twilight
Nautical Twilight
Astronomical Twilight
Moon
Length of Visible Light
Length of Day
Tomorrow will be .
, % of the Moon is Illuminated

Today's Extremes

State Highs State Lows

Community

WunderPhotos

Category 6

Welcome to Category 6. This is the collective home for Weather Underground's featured writeups by Dr. Jeff Masters (right), Bob Henson (left), Chris Burt, and other regular contributors.

Nearby

Air Quality

  Air Quality AQ Index Pollutant
Not available.

Snow Depth

Station Depth Elevation

Earthquake Activity

City Distance Mag. Time & Date
Minimum magnitude displayed is 2.5.

Coastal Water Temperatures

Place Temperature

Stations

Nearby Weather Stations

Station Location Temp. Windchill Dew Point Humidity Wind Precip. Elev Updated Type
                   

Watches & Warnings

Flood Warning
Issued: 10:56 AM CDT May. 25, 2017 – National Weather Service

The Flood Warning continues for
the Ohio River at Cairo.
* Until Thursday June 01.
* At 10:00 am Thursday the stage was 41.7 feet.
* Flood stage is 40.0 feet.
* Minor flooding is occurring and minor flooding is forecast.
* Forecast... the river will remain nearly steady around 41.5 feet
through the weekend. It will then start to fall next week.
* Impact... at 40.0 feet... minor flooding occurs affecting mainly
agricultural bottomland and low lying areas.


Lat... Lon 3709 8946 3717 8916 3709 8907 3680 8900
      3651 8918